< < Back
Terminal Aerodrome Forecast


Current Version              Previous Versions:   1  2  3  4  5  6  7  8  9  

Terminal Aerodrome Forecast

874
FTUS42 KTAE 310523
TAFDHN
TAF
KDHN 310523Z 3106/0106 20004KT P6SM SCT250
     FM311500 24007KT P6SM SCT030
     FM311800 22008KT P6SM VCTS BKN040CB BKN100
     FM010000 VRB03KT P6SM SCT040 BKN100=

Latest METAR

032
SAUS70 KWBC 310700 RRH
MTRDHN
METAR KDHN 310653Z AUTO 22003KT 10SM CLR 25/24 A3006 RMK AO2 SLP173
T02500239


USA.gov is the U.S. government's official web portal to all federal, state and local government web resources and services.